AirNav   Jet Aviation Boston
 
 850 users online  

VA02 Pace Airport
Ridgeway, Virginia, USA

GOING TO RIDGEWAY?


FAA INFORMATION EFFECTIVE 21 JUNE 2018

Location

FAA Identifier: VA02
Lat/Long: 36-35-07.4960N / 079-53-38.1430W
36-35.124933N / 079-53.635717W
36.5854156 / -79.8939286
(estimated)
Elevation: 800 ft. / 244 m (estimated)
Variation: 06W (1985)
From city: 1 mile W of RIDGEWAY, VA
Time zone: UTC -4 (UTC -5 during Standard Time)
Zip code: 24148

Airport Operations

Airport use: Private use. Permission required prior to landing
Activation date: 05/1988
Control tower: no
ARTCC: ATLANTA CENTER
FSS: LEESBURG FLIGHT SERVICE STATION
Attendance: 0800-0600
Wind indicator: yes
Segmented circle: no

Airport Communications

WX AWOS-3 at MTV (7 nm NW): 118.45 (276-957-3784)
WX AWOS-3 at SIF (9 nm S): 119.775 (336-573-3677)

Nearby radio navigation aids

VOR radial/distance  VOR name  Freq  Var
DANr278/(26.9)DANVILLE VOR113.1006W
GSOr010/32.6GREENSBORO VORTAC116.2003W

 
NDB name  Hdg/Dist  Freq  Var  ID
BALES111/1.239607WUV ..- ...-
SLAMMER340/13.842307WSIF ... .. ..-.
VINTON189/37.127708WVIT ...- .. -

Airport Services

Fuel available: 100LL

Runway Information

Runway 18/36

Dimensions: 3000 x 150 ft. / 914 x 46 m
Surface: turf
RUNWAY 18  RUNWAY 36
Traffic pattern: leftleft

Airport Ownership and Management from official FAA records

Ownership: Privately-owned
Owner: T. KEM PACE
200 PACE AIRPORT RD
RIDGEWAY, VA 24148
Phone 276-956-2159
CELL - 276-734-4308.
Manager: T. KEM PACE
200 PACE RD
RIDGEWAY, VA 24148
Phone 276-956-2159
CELL - 276-734-4308.

Airport Operational Statistics

Aircraft based on the field: 13
Single engine airplanes: 11
Helicopters: 1
Ultralights: 1
    

Instrument Procedures

There are no published instrument procedures at VA02.

Some nearby airports with instrument procedures:

KMTV - Blue Ridge Airport (7 nm NW)
KSIF - Rockingham County NC Shiloh Airport (9 nm S)
N63 - Meadow Brook Field Airport (21 nm SW)
KDAN - Danville Regional Airport (27 nm E)
KGSO - Piedmont Triad International Airport (29 nm S)
 
Loc | Ops | Rwys | IFR | FBO | Links
Com | Nav | Svcs | Stats | Notes

AirNav Hotels Sweepstakes
 
Area around VA02 (Pace Airport)
 
Road maps at: MapQuest Bing Google
 
Aerial photo
WARNING: Photo may not be current or correct
Aerial photo of VA02 (Pace Airport)
Do you have a better or more recent aerial photo of Pace Airport that you would like to share? If so, please send us your photo.

 
Sectional chart

 
Airport distance calculator
Flying to Pace Airport? Find the distance to fly.

From to VA02

Sunrise and sunset
Times for 23-Jun-2018
 Local
(UTC-4)
 Zulu
(UTC)
Morning civil twilight05:3209:32
Sunrise06:0310:03
Sunset20:4100:41
Evening civil twilight21:1101:11

Current date and time
Zulu (UTC)  24-Jun-2018 00:00:31
Local (UTC-4)  23-Jun-2018 20:00:31
 
METAR
KMTV 
6nm W 
232335Z AUTO 00000KT 10SM CLR 28/21 A2987 RMK AO2 T02830205
KSIF 
9nm S 
232335Z AUTO 27004KT 10SM CLR 29/20 A2984 RMK AO2 T02890197
TAF
KDAN 
27nm E 
232054Z 2321/2418 25010KT P6SM SCT120 FM232200 26009KT P6SM VCSH SCT040 BKN100 FM240000 23005KT P6SM SCT200 FM241400 27005KT P6SM SCT250
KGSO 
29nm S 
231851Z 2319/2418 26008G14KT P6SM SCT040 FM240100 25005KT P6SM BKN250 FM241600 26010KT P6SM SCT040
KINT 
31nm SW 
231851Z 2319/2418 26008G14KT P6SM SCT040 FM240100 25005KT P6SM BKN250 FM241600 26010KT P6SM SCT040
NOTAMs
Click for the latest NOTAMs
NOTAMs are issued by the DoD/FAA and will open in a separate window not controlled by AirNav.

 

 
 

FBO, Fuel Providers, and Aircraft Ground Support

  
 Business Name 
 
 Contact 
 
 Services / Description 
 
Fuel Prices
 
Comments
  
Pace Flying 276-956-2159
no information available

If you are affiliated with Pace Flying and would like to show here your services, contact info, web link, logo, and more, click here
100LL
AS $5.00 
 Updated 05-Jan-2015
 
   write
AS=Assisted/Self Service
Update Fuel Prices
 

Would you like to see your business listed on this page?

 If your business provides an interesting product or service to pilots, flight crews, aircraft, or users of the Pace Airport, you should consider listing it here.  To start the listing process, click on the button below
 
Add a business
 

Other Pages about Pace Airport

Update a link
 
Copyright © AirNav, LLC. All rights reserved. Privacy Policy  Contact